Capitol Logistics 375




KMHT
Manchester Airport
Manchester, New Hampshire
KABE
Lehigh Valley International Airport
Allentown, Pennsylvania

Activity Log

Date Flight Route Aircraft Duration
No Flights Yet

Route Details

Aircraft Information
Primary: Boeing 737-800BCF
Backup: Boeing 757-200SF
Route Data
Distance: 226nm
Duration: 0h 45m
Recm'd Route: PPORT3 BAF HUO
Origin Wx: KMHT 141953Z 14011KT 10SM FEW065 18/04 A2992 RMK AO2 SLP145 T01830044
Dest. Wx: KABE 141951Z 24006KT 10SM FEW065 OVC085 16/10 A2994 RMK AO2 RAE1855 SLP140 P0000 T01610100 $
Notes: